TAF LFOZ
METAR LFOZ
LFOZ 090930Z AUTO 21008KT CAVOK 02/01 Q1010=
LFOZ 090900Z AUTO 21007KT 9999 FEW007 01/00 Q1009=
LFOZ 090830Z AUTO 21007KT 9999 FEW006 00/M00 Q1009=
LFOZ 090800Z AUTO 21006KT CAVOK M00/M01 Q1009=
LFOZ 090730Z AUTO 22006KT CAVOK M01/M02 Q1009=
WC LFOZ
WS LFOZ
WV LFOZ